Time;durP1;ratioP1;P1;durP2;ratioP2;P2;SDS_P1;SDS_P2;PMS_P1;PMS_P2;Temp;Humidity;BMP_temperature;BMP_pressure;BME280_temperature;BME280_humidity;BME280_pressure;Samples;Min_cycle;Max_cycle;Signal;HPM_P1;HPM_P2
2021/01/04 00:00:43;;;;;;;22.92;11.70;;;1.70;99.90;;;;;;5087077;28;20080;-73
2021/01/04 00:03:40;;;;;;;26.25;12.77;;;1.60;99.90;;;;;;5068485;28;20116;-73
2021/01/04 00:06:30;;;;;;;24.92;12.10;;;1.30;99.90;;;;;;5082401;28;20091;-73
2021/01/04 00:09:02;;;;;;;23.65;11.75;;;1.30;99.90;;;;;;5087841;28;20084;-73
2021/01/04 00:11:55;;;;;;;20.05;11.00;;;1.20;99.90;;;;;;5069028;28;20084;-73
2021/01/04 00:14:50;;;;;;;25.20;12.00;;;1.20;99.90;;;;;;5084446;28;20088;-73
2021/01/04 00:17:41;;;;;;;21.02;11.63;;;1.30;99.90;;;;;;5087729;28;20065;-72
2021/01/04 00:20:30;;;;;;;19.77;10.82;;;1.20;99.90;;;;;;5086785;28;20077;-73
2021/01/04 00:23:25;;;;;;;21.20;11.13;;;1.10;99.90;;;;;;5084818;28;20724;-73
2021/01/04 00:26:19;;;;;;;21.10;13.13;;;1.10;99.90;;;;;;5087805;28;20100;-73
2021/01/04 00:28:46;;;;;;;20.67;11.38;;;1.10;99.90;;;;;;5088104;28;20085;-72
2021/01/04 00:31:19;;;;;;;21.20;12.30;;;1.10;99.90;;;;;;5087885;28;20529;-72
2021/01/04 00:33:50;;;;;;;23.20;12.40;;;1.00;99.90;;;;;;5091963;28;20094;-72
2021/01/04 00:36:32;;;;;;;19.10;12.15;;;0.90;99.90;;;;;;5072909;28;20095;-73
2021/01/04 00:39:12;;;;;;;21.23;12.00;;;0.70;99.90;;;;;;5073040;28;20295;-73
2021/01/04 00:41:59;;;;;;;21.02;12.38;;;0.60;99.90;;;;;;5073316;28;20072;-73
2021/01/04 00:44:34;;;;;;;18.90;11.65;;;0.80;99.90;;;;;;5091724;28;20077;-73
2021/01/04 00:47:11;;;;;;;22.20;10.48;;;1.00;99.90;;;;;;5092116;28;20068;-73
2021/01/04 00:49:38;;;;;;;21.52;11.75;;;1.40;99.90;;;;;;5091651;28;20855;-73
2021/01/04 00:52:35;;;;;;;20.05;11.35;;;1.60;99.90;;;;;;5091709;28;20072;-73
2021/01/04 00:55:41;;;;;;;21.55;11.88;;;1.70;99.90;;;;;;5091066;28;20114;-73
2021/01/04 00:58:21;;;;;;;24.55;13.48;;;1.70;99.90;;;;;;5091983;28;20119;-72
2021/01/04 01:00:54;;;;;;;22.25;12.55;;;1.50;99.90;;;;;;5091660;28;20068;-72
2021/01/04 01:03:52;;;;;;;21.23;11.98;;;1.20;99.90;;;;;;5091326;28;20088;-73
2021/01/04 01:06:29;;;;;;;22.67;12.45;;;0.90;99.90;;;;;;5070329;28;20073;-73
2021/01/04 01:08:57;;;;;;;21.35;11.68;;;1.20;99.90;;;;;;5071655;28;20084;-73
2021/01/04 01:11:44;;;;;;;23.55;13.25;;;1.40;99.90;;;;;;5073575;28;20068;-73
2021/01/04 01:14:19;;;;;;;19.88;10.95;;;1.40;99.90;;;;;;5090900;28;20091;-73
2021/01/04 01:17:03;;;;;;;21.45;12.48;;;1.50;99.90;;;;;;5091294;28;20107;-72
2021/01/04 01:19:53;;;;;;;21.05;11.75;;;1.30;99.90;;;;;;5072748;28;20077;-72
2021/01/04 01:22:28;;;;;;;20.95;11.85;;;1.20;99.90;;;;;;5090963;28;20179;-73
2021/01/04 01:24:54;;;;;;;20.73;11.23;;;1.00;99.90;;;;;;5085793;28;20083;-72
2021/01/04 01:27:33;;;;;;;20.63;11.82;;;0.80;99.90;;;;;;5090826;28;20096;-72
2021/01/04 01:30:28;;;;;;;20.15;11.00;;;0.80;99.90;;;;;;5072972;28;20096;-72
2021/01/04 01:33:12;;;;;;;19.55;11.07;;;0.70;99.90;;;;;;5090867;28;20084;-72
2021/01/04 01:36:04;;;;;;;21.05;11.52;;;0.80;99.90;;;;;;5089728;28;20483;-73
2021/01/04 01:38:48;;;;;;;22.83;12.13;;;1.10;99.90;;;;;;5090112;28;20068;-73
2021/01/04 01:41:51;;;;;;;19.50;11.13;;;1.40;99.90;;;;;;5090601;28;20072;-72
2021/01/04 01:44:29;;;;;;;21.23;12.23;;;1.40;99.90;;;;;;5089260;28;20115;-73
2021/01/04 01:47:01;;;;;;;18.42;11.00;;;1.40;99.90;;;;;;5090892;28;20077;-72
2021/01/04 01:50:01;;;;;;;18.50;11.55;;;1.00;99.90;;;;;;5072392;28;20096;-73
2021/01/04 01:52:50;;;;;;;15.38;9.10;;;0.60;99.90;;;;;;5090485;28;20077;-72
2021/01/04 01:55:44;;;;;;;17.63;10.07;;;0.70;99.90;;;;;;5089998;28;20117;-72
2021/01/04 01:58:28;;;;;;;16.08;10.00;;;0.80;99.90;;;;;;5091148;28;20389;-72
2021/01/04 02:01:21;;;;;;;13.47;8.87;;;0.60;99.90;;;;;;5065209;28;20130;-72
2021/01/04 02:04:00;;;;;;;17.27;9.75;;;0.80;99.90;;;;;;5090958;28;20084;-72
2021/01/04 02:06:39;;;;;;;16.55;10.15;;;0.90;99.90;;;;;;5089782;28;20076;-72
2021/01/04 02:09:19;;;;;;;15.63;8.85;;;1.30;99.90;;;;;;5083597;28;20076;-71
2021/01/04 02:12:09;;;;;;;17.70;9.45;;;1.40;99.90;;;;;;5094787;28;20084;-73
2021/01/04 02:14:43;;;;;;;15.15;8.82;;;1.50;99.90;;;;;;5092414;28;20072;-73
2021/01/04 02:17:28;;;;;;;18.52;10.35;;;1.50;99.90;;;;;;5089923;28;20160;-72
2021/01/04 02:20:09;;;;;;;16.08;9.85;;;1.00;99.90;;;;;;5068208;28;20091;-72
2021/01/04 02:22:50;;;;;;;18.00;9.95;;;0.90;99.90;;;;;;5090665;28;20564;-73
2021/01/04 02:25:15;;;;;;;16.50;9.40;;;0.90;99.90;;;;;;5099285;28;20494;-73
2021/01/04 02:27:45;;;;;;;18.15;10.90;;;1.00;99.90;;;;;;5070994;28;20080;-72
2021/01/04 02:30:12;;;;;;;19.15;11.98;;;1.20;99.90;;;;;;5102455;28;20088;-73
2021/01/04 02:32:38;;;;;;;18.70;10.38;;;1.00;99.90;;;;;;5098894;28;20088;-73
2021/01/04 02:35:04;;;;;;;16.38;10.85;;;0.80;99.90;;;;;;5101740;28;20137;-73
2021/01/04 02:37:29;;;;;;;17.98;10.63;;;1.00;99.90;;;;;;5088235;28;20077;-72
2021/01/04 02:40:07;;;;;;;19.20;11.43;;;1.20;99.90;;;;;;5089188;28;20087;-72
2021/01/04 02:42:36;;;;;;;16.20;10.57;;;1.50;99.90;;;;;;5068559;28;20103;-73
2021/01/04 02:45:25;;;;;;;14.40;9.90;;;1.30;99.90;;;;;;5088272;28;20536;-72
2021/01/04 02:48:34;;;;;;;15.63;9.40;;;1.20;99.90;;;;;;5064902;28;20146;-73
2021/01/04 02:51:11;;;;;;;16.23;9.35;;;1.50;99.90;;;;;;5068747;28;20100;-72
2021/01/04 02:53:51;;;;;;;16.98;9.07;;;1.50;99.90;;;;;;5088069;28;20084;-72
2021/01/04 02:56:32;;;;;;;14.27;9.57;;;1.50;99.90;;;;;;5078966;28;20095;-73
2021/01/04 02:59:34;;;;;;;17.20;9.93;;;1.00;99.90;;;;;;5088341;28;20076;-73
2021/01/04 03:02:14;;;;;;;15.85;9.27;;;0.80;99.90;;;;;;5092746;28;20074;-75
2021/01/04 03:04:40;;;;;;;17.00;10.90;;;0.80;99.90;;;;;;5090578;28;20513;-73
2021/01/04 03:07:16;;;;;;;15.15;9.55;;;1.00;99.90;;;;;;5087379;28;20471;-74
2021/01/04 03:09:48;;;;;;;15.50;9.73;;;1.30;99.90;;;;;;5096141;28;20092;-73
2021/01/04 03:12:18;;;;;;;18.05;10.60;;;1.20;99.90;;;;;;5094286;28;20472;-74
2021/01/04 03:15:02;;;;;;;18.73;10.52;;;1.20;99.90;;;;;;5100293;28;20068;-73
2021/01/04 03:17:47;;;;;;;17.77;10.53;;;1.20;99.90;;;;;;5095632;28;20159;-74
2021/01/04 03:20:17;;;;;;;16.35;9.93;;;1.00;99.90;;;;;;5088774;28;20130;-73
2021/01/04 03:22:45;;;;;;;20.48;10.98;;;0.90;99.90;;;;;;5091525;28;20096;-73
2021/01/04 03:25:33;;;;;;;20.17;11.35;;;1.30;99.90;;;;;;5069722;28;20080;-73
2021/01/04 03:28:00;;;;;;;18.17;9.60;;;1.30;99.90;;;;;;5096176;28;20072;-72
2021/01/04 03:30:26;;;;;;;17.15;9.35;;;1.40;99.90;;;;;;5089578;28;20650;-74
2021/01/04 03:32:51;;;;;;;16.50;10.02;;;1.10;99.90;;;;;;5089454;28;20600;-73
2021/01/04 03:35:17;;;;;;;18.75;11.20;;;1.10;99.90;;;;;;5070750;28;20064;-73
2021/01/04 03:37:43;;;;;;;16.83;9.75;;;1.20;99.90;;;;;;5088073;28;20561;-73
2021/01/04 03:40:09;;;;;;;20.48;11.52;;;1.30;99.90;;;;;;5089577;28;20083;-72
2021/01/04 03:42:34;;;;;;;20.13;11.57;;;1.20;99.90;;;;;;5088972;28;20091;-73
2021/01/04 03:45:00;;;;;;;19.88;11.38;;;1.30;99.90;;;;;;5088820;28;20072;-73
2021/01/04 03:47:25;;;;;;;17.48;10.45;;;1.40;99.90;;;;;;5089337;28;20167;-73
2021/01/04 03:49:52;;;;;;;18.67;10.60;;;1.40;99.90;;;;;;5093175;28;20102;-73
2021/01/04 03:52:17;;;;;;;19.10;11.00;;;1.60;99.90;;;;;;5088614;28;20137;-75
2021/01/04 03:54:43;;;;;;;20.20;10.93;;;1.80;99.90;;;;;;5069690;28;20156;-73
2021/01/04 03:57:10;;;;;;;18.52;11.65;;;1.70;99.90;;;;;;5075359;28;20082;-73
2021/01/04 03:59:36;;;;;;;20.55;11.95;;;1.20;99.90;;;;;;5101544;28;20102;-73
2021/01/04 04:02:03;;;;;;;20.33;10.70;;;1.00;99.90;;;;;;5104823;28;20068;-73
2021/01/04 04:04:29;;;;;;;19.77;11.40;;;0.90;99.90;;;;;;5093973;28;20072;-75
2021/01/04 04:06:54;;;;;;;19.55;11.23;;;1.20;99.90;;;;;;5087882;28;20083;-73
2021/01/04 04:09:22;;;;;;;22.70;12.80;;;1.20;99.90;;;;;;5095111;28;20172;-74
2021/01/04 04:11:48;;;;;;;20.58;11.75;;;1.10;99.90;;;;;;5090299;28;20104;-73
2021/01/04 04:14:14;;;;;;;21.02;11.18;;;0.90;99.90;;;;;;5089364;28;20072;-73
2021/01/04 04:16:40;;;;;;;18.95;11.50;;;0.90;99.90;;;;;;5091602;28;20084;-74
2021/01/04 04:19:06;;;;;;;20.88;11.50;;;0.90;99.90;;;;;;5087450;28;20088;-74
2021/01/04 04:21:34;;;;;;;21.60;12.30;;;0.80;99.90;;;;;;5087263;28;20081;-73
2021/01/04 04:23:59;;;;;;;21.65;12.00;;;0.80;99.90;;;;;;5082842;28;20092;-73
2021/01/04 04:26:27;;;;;;;20.30;12.38;;;1.00;99.90;;;;;;5088261;28;20579;-73
2021/01/04 04:28:53;;;;;;;20.55;11.95;;;0.90;99.90;;;;;;5104033;28;20158;-73
2021/01/04 04:31:19;;;;;;;20.10;11.65;;;0.80;99.90;;;;;;5083700;28;20111;-73
2021/01/04 04:33:45;;;;;;;21.02;11.30;;;0.80;99.90;;;;;;5106132;28;20099;-73
2021/01/04 04:36:24;;;;;;;20.73;13.43;;;1.20;99.90;;;;;;5091287;28;20084;-73
2021/01/04 04:38:51;;;;;;;21.05;12.45;;;1.40;99.90;;;;;;5092186;28;20443;-73
2021/01/04 04:41:28;;;;;;;24.17;11.80;;;1.50;99.90;;;;;;5091033;28;20210;-72
2021/01/04 04:44:16;;;;;;;24.08;11.98;;;1.40;99.90;;;;;;5087427;28;20092;-72
2021/01/04 04:47:07;;;;;;;21.80;11.00;;;1.50;99.90;;;;;;5087717;28;20141;-72
2021/01/04 04:50:03;;;;;;;20.80;11.93;;;1.60;99.90;;;;;;5048268;28;20128;-73
2021/01/04 04:52:55;;;;;;;21.10;12.75;;;1.50;99.90;;;;;;5092796;28;20093;-73
2021/01/04 04:55:48;;;;;;;22.17;12.32;;;1.50;99.90;;;;;;5076521;28;20092;-73
2021/01/04 04:58:39;;;;;;;26.33;13.25;;;1.40;99.90;;;;;;5068820;28;20080;-72
2021/01/04 05:01:26;;;;;;;20.23;10.63;;;1.40;99.90;;;;;;5075808;28;20079;-73
2021/01/04 05:03:59;;;;;;;24.17;13.00;;;1.30;99.90;;;;;;5089004;28;20097;-74
2021/01/04 05:06:47;;;;;;;25.35;12.65;;;1.30;99.90;;;;;;5069182;28;20073;-74
2021/01/04 05:09:21;;;;;;;23.20;12.35;;;1.40;99.90;;;;;;5072321;28;20080;-73
2021/01/04 05:12:06;;;;;;;21.98;12.27;;;1.50;99.90;;;;;;5062937;28;20076;-73
2021/01/04 05:14:35;;;;;;;23.53;13.03;;;1.60;99.90;;;;;;5090874;28;20093;-73
2021/01/04 05:17:39;;;;;;;27.13;13.07;;;1.50;99.90;;;;;;5069131;28;20322;-74
2021/01/04 05:20:45;;;;;;;25.23;13.23;;;1.20;99.90;;;;;;5082515;28;20084;-73
2021/01/04 05:23:46;;;;;;;23.33;12.52;;;1.40;99.90;;;;;;5111997;28;20615;-74
2021/01/04 05:26:30;;;;;;;26.08;14.02;;;1.20;99.90;;;;;;5111678;28;20079;-73
2021/01/04 05:29:16;;;;;;;27.50;13.55;;;1.30;99.90;;;;;;5112122;28;20103;-73
2021/01/04 05:31:44;;;;;;;;;;;1.00;99.90;;;;;;5112795;28;20064;-73
2021/01/04 05:34:21;;;;;;;25.38;12.27;;;1.20;99.90;;;;;;5111513;28;20005;-73
2021/01/04 05:37:07;;;;;;;25.10;13.05;;;1.20;99.90;;;;;;5091374;28;20080;-74
2021/01/04 05:40:07;;;;;;;25.10;13.07;;;1.40;99.90;;;;;;5091507;28;20129;-74
2021/01/04 05:43:04;;;;;;;29.20;13.07;;;1.50;99.90;;;;;;5095233;28;20126;-73
2021/01/04 05:45:49;;;;;;;21.83;12.32;;;1.50;99.90;;;;;;5111676;28;20067;-73
2021/01/04 05:48:42;;;;;;;26.45;14.13;;;1.30;99.90;;;;;;5090826;28;20142;-73
2021/01/04 05:51:16;;;;;;;25.00;12.93;;;1.40;99.90;;;;;;5072915;28;20498;-73
2021/01/04 05:53:44;;;;;;;28.55;14.27;;;1.30;99.90;;;;;;5090700;28;20112;-73
2021/01/04 05:56:10;;;;;;;32.88;14.43;;;1.50;99.90;;;;;;5072821;28;20229;-73
2021/01/04 05:58:36;;;;;;;24.77;14.45;;;1.60;99.90;;;;;;5091489;28;20100;-74
2021/01/04 06:01:31;;;;;;;27.30;13.85;;;1.60;99.90;;;;;;5091026;28;20181;-73
2021/01/04 06:04:01;;;;;;;26.42;14.90;;;1.60;99.90;;;;;;5090419;28;20187;-73
2021/01/04 06:06:53;;;;;;;25.73;13.80;;;1.50;99.90;;;;;;5091148;28;20445;-73
2021/01/04 06:09:20;;;;;;;26.58;13.75;;;1.60;99.90;;;;;;5050505;28;20089;-74
2021/01/04 06:11:57;;;;;;;30.65;15.20;;;1.50;99.90;;;;;;5070851;28;20065;-73
2021/01/04 06:14:30;;;;;;;26.40;14.65;;;1.60;99.90;;;;;;5053528;28;20081;-73
2021/01/04 06:17:07;;;;;;;24.83;13.98;;;1.70;99.90;;;;;;5069641;28;20077;-73
2021/01/04 06:19:37;;;;;;;24.23;13.73;;;1.50;99.90;;;;;;5069797;28;20552;-72
2021/01/04 06:22:16;;;;;;;27.58;13.82;;;1.60;99.90;;;;;;5070322;28;20150;-73
2021/01/04 06:24:44;;;;;;;27.90;13.90;;;1.40;99.90;;;;;;5070231;28;20075;-73
2021/01/04 06:27:17;;;;;;;22.63;13.20;;;1.10;99.90;;;;;;5070996;28;20077;-73
2021/01/04 06:29:46;;;;;;;25.75;14.88;;;1.30;99.90;;;;;;5068566;28;20108;-72
2021/01/04 06:32:27;;;;;;;27.17;13.82;;;1.20;99.90;;;;;;5070171;28;20123;-73
2021/01/04 06:35:04;;;;;;;26.00;12.80;;;1.00;99.90;;;;;;5079906;28;20072;-73
2021/01/04 06:37:32;;;;;;;28.77;14.18;;;1.00;99.90;;;;;;5089967;28;20147;-73
2021/01/04 06:40:30;;;;;;;24.50;14.70;;;0.90;99.90;;;;;;5090537;28;20100;-73
2021/01/04 06:42:55;;;;;;;29.10;13.75;;;1.10;99.90;;;;;;5070408;28;20472;-74
2021/01/04 06:45:33;;;;;;;25.55;13.68;;;1.10;99.90;;;;;;5090567;28;20071;-73
2021/01/04 06:48:06;;;;;;;28.83;13.60;;;1.20;99.90;;;;;;5090555;28;20125;-73
2021/01/04 06:51:23;;;;;;;27.58;14.43;;;1.20;99.90;;;;;;5071369;28;20479;-73
2021/01/04 06:54:15;;;;;;;25.35;13.63;;;1.10;99.90;;;;;;5046317;28;20146;-74
2021/01/04 06:56:58;;;;;;;28.20;15.07;;;0.70;99.90;;;;;;5089662;28;20068;-74
2021/01/04 06:59:55;;;;;;;28.85;15.30;;;0.50;99.90;;;;;;5089182;28;20478;-73
2021/01/04 07:02:45;;;;;;;25.98;12.77;;;0.30;99.90;;;;;;5050467;28;20089;-74
2021/01/04 07:06:04;;;;;;;26.48;14.00;;;0.30;99.90;;;;;;5080544;28;20424;-73
2021/01/04 07:09:02;;;;;;;30.83;14.90;;;0.80;99.90;;;;;;4987334;28;20095;-73
2021/01/04 07:11:30;;;;;;;23.48;12.82;;;0.80;99.90;;;;;;4971489;28;20567;-74
2021/01/04 07:14:21;;;;;;;29.83;15.27;;;0.50;99.90;;;;;;5051649;28;20151;-73
2021/01/04 07:17:14;;;;;;;25.23;13.27;;;0.50;99.90;;;;;;5069780;28;20151;-74
2021/01/04 07:20:05;;;;;;;25.55;13.60;;;0.40;99.90;;;;;;5068946;28;20084;-74
2021/01/04 07:23:08;;;;;;;23.60;12.40;;;0.70;99.90;;;;;;5069300;28;20162;-73
2021/01/04 07:25:56;;;;;;;23.80;13.50;;;0.90;99.90;;;;;;5068708;28;20161;-74
2021/01/04 07:29:03;;;;;;;25.80;13.75;;;0.60;99.90;;;;;;5069352;28;20079;-74
2021/01/04 07:31:38;;;;;;;28.40;13.85;;;0.90;99.90;;;;;;5069086;28;20092;-74
2021/01/04 07:34:15;;;;;;;26.85;14.90;;;1.00;99.90;;;;;;5068562;28;20088;-73
2021/01/04 07:37:19;;;;;;;28.10;14.07;;;1.00;99.90;;;;;;5088124;28;20072;-75
2021/01/04 07:40:01;;;;;;;28.25;14.35;;;0.90;99.90;;;;;;5037178;28;20085;-74
2021/01/04 07:42:56;;;;;;;25.70;13.68;;;0.70;99.90;;;;;;5067827;28;20084;-74
2021/01/04 07:45:47;;;;;;;26.00;13.45;;;0.40;99.90;;;;;;5064824;28;20069;-73
2021/01/04 07:48:13;;;;;;;27.58;15.02;;;0.10;99.90;;;;;;5070383;28;20240;-75
2021/01/04 07:51:16;;;;;;;26.33;14.40;;;0.00;99.90;;;;;;5083267;28;20131;-74
2021/01/04 07:54:27;;;;;;;30.00;15.25;;;0.20;99.90;;;;;;5084969;28;20586;-74
2021/01/04 07:57:30;;;;;;;32.35;16.20;;;0.40;99.90;;;;;;5047567;28;20171;-74
2021/01/04 08:00:23;;;;;;;30.58;15.95;;;0.70;99.90;;;;;;5087652;28;20492;-73
2021/01/04 08:03:32;;;;;;;32.80;15.27;;;0.70;99.90;;;;;;5068034;28;20161;-74
2021/01/04 08:06:08;;;;;;;24.90;14.30;;;0.90;99.90;;;;;;5089523;28;20436;-74
2021/01/04 08:09:03;;;;;;;27.13;14.38;;;1.00;99.90;;;;;;5088685;28;20080;-74
2021/01/04 08:12:06;;;;;;;30.70;16.65;;;1.00;99.90;;;;;;5088334;28;20076;-76
2021/01/04 08:15:07;;;;;;;29.63;15.38;;;1.00;99.90;;;;;;5083117;28;20522;-75
2021/01/04 08:17:46;;;;;;;28.95;15.30;;;0.90;99.90;;;;;;5025815;28;20598;-73
2021/01/04 08:20:12;;;;;;;23.83;13.93;;;0.90;99.90;;;;;;5081736;28;20352;-72
2021/01/04 08:23:17;;;;;;;26.83;14.90;;;0.90;99.90;;;;;;5061287;28;20141;-77
2021/01/04 08:26:00;;;;;;;29.33;15.65;;;0.90;99.90;;;;;;5083758;28;20080;-73
2021/01/04 08:28:48;;;;;;;27.83;15.68;;;0.90;99.90;;;;;;5087546;28;20061;-74
2021/01/04 08:31:22;;;;;;;31.27;15.77;;;0.90;99.90;;;;;;5086932;28;20226;-73
2021/01/04 08:33:57;;;;;;;29.20;15.43;;;0.90;99.90;;;;;;5085087;28;20089;-73
2021/01/04 08:36:28;;;;;;;31.33;15.40;;;0.80;99.90;;;;;;5084064;28;20515;-73
2021/01/04 08:39:08;;;;;;;29.35;16.15;;;0.90;99.90;;;;;;5087588;28;20080;-73
2021/01/04 08:41:38;;;;;;;25.65;14.65;;;0.90;99.90;;;;;;5086377;28;20069;-73
2021/01/04 08:44:19;;;;;;;29.50;15.43;;;0.90;99.90;;;;;;5083973;28;20093;-73
2021/01/04 08:46:46;;;;;;;22.83;13.60;;;0.80;99.90;;;;;;5066424;28;20068;-73
2021/01/04 08:49:16;;;;;;;28.40;15.95;;;0.70;99.90;;;;;;5087237;28;20073;-72
2021/01/04 08:51:43;;;;;;;29.67;15.32;;;0.60;99.90;;;;;;5087180;28;20136;-73
2021/01/04 08:54:42;;;;;;;27.23;16.30;;;0.70;99.90;;;;;;5071410;28;20599;-72
2021/01/04 08:57:20;;;;;;;32.90;17.70;;;0.70;99.90;;;;;;5046522;28;20738;-73
2021/01/04 08:59:56;;;;;;;32.75;17.70;;;0.70;99.90;;;;;;5092029;28;20075;-74
2021/01/04 09:02:34;;;;;;;30.35;17.20;;;0.70;99.90;;;;;;5072950;28;20148;-74
2021/01/04 09:05:03;;;;;;;26.83;15.23;;;0.70;99.90;;;;;;5090528;28;20076;-73
2021/01/04 09:07:29;;;;;;;32.38;16.02;;;0.60;99.90;;;;;;5072955;28;20687;-73
2021/01/04 09:10:23;;;;;;;25.58;15.25;;;0.20;99.90;;;;;;5091652;28;20560;-72
2021/01/04 09:12:52;;;;;;;26.13;16.10;;;0.20;99.90;;;;;;5052417;28;20576;-74
2021/01/04 09:15:20;;;;;;;27.60;16.08;;;0.30;99.90;;;;;;5091745;28;20125;-73
2021/01/04 09:17:51;;;;;;;27.65;15.10;;;0.30;99.90;;;;;;5091827;28;20064;-74
2021/01/04 09:20:20;;;;;;;25.13;14.38;;;0.30;99.90;;;;;;5089408;28;20080;-73
2021/01/04 09:22:49;;;;;;;28.48;16.58;;;0.50;99.90;;;;;;5091581;28;20552;-73
2021/01/04 09:25:25;;;;;;;31.88;17.65;;;0.40;99.90;;;;;;5090668;28;20091;-75
2021/01/04 09:27:53;;;;;;;32.47;16.70;;;0.30;99.90;;;;;;5091443;28;20068;-73
2021/01/04 09:30:25;;;;;;;31.98;18.50;;;0.40;99.90;;;;;;5090951;28;20747;-74
2021/01/04 09:33:06;;;;;;;31.52;17.50;;;0.50;99.90;;;;;;5091403;28;20145;-73
2021/01/04 09:35:31;;;;;;;30.02;17.13;;;0.20;99.90;;;;;;5090199;28;20068;-73
2021/01/04 09:38:02;;;;;;;27.70;15.40;;;0.10;99.90;;;;;;5092106;28;20077;-80
2021/01/04 09:40:29;;;;;;;28.17;16.88;;;0.00;99.90;;;;;;5091379;28;20069;-80
2021/01/04 09:43:13;;;;;;;31.27;16.50;;;-0.10;99.90;;;;;;5072332;28;20135;-73
2021/01/04 09:45:39;;;;;;;30.75;17.42;;;0.30;99.90;;;;;;5090192;28;20084;-72
2021/01/04 09:48:09;;;;;;;26.80;16.77;;;0.60;99.90;;;;;;5072907;28;20076;-72
2021/01/04 09:51:03;;;;;;;29.00;16.17;;;0.60;99.90;;;;;;5071865;28;20145;-71
2021/01/04 09:53:34;;;;;;;30.48;16.80;;;0.70;99.90;;;;;;5084510;28;20179;-71
2021/01/04 09:56:07;;;;;;;25.17;14.65;;;0.70;99.90;;;;;;5089576;28;20540;-71
2021/01/04 09:58:32;;;;;;;29.10;15.80;;;0.70;99.90;;;;;;5090581;28;20100;-72
2021/01/04 10:01:12;;;;;;;28.60;16.88;;;0.70;99.90;;;;;;5090784;28;20100;-73
2021/01/04 10:03:50;;;;;;;30.00;15.90;;;0.80;99.90;;;;;;5090172;28;20092;-73
2021/01/04 10:06:16;;;;;;;28.20;15.30;;;0.50;99.90;;;;;;5089399;28;20155;-73
2021/01/04 10:08:42;;;;;;;29.92;16.92;;;0.10;99.90;;;;;;5071043;28;20191;-73
2021/01/04 10:11:09;;;;;;;30.50;17.40;;;-0.20;99.90;;;;;;5071479;28;20137;-73
2021/01/04 10:13:37;;;;;;;28.70;16.02;;;-0.10;99.90;;;;;;5089721;28;20136;-73
2021/01/04 10:16:08;;;;;;;31.50;16.92;;;0.20;99.90;;;;;;5072232;28;20146;-73
2021/01/04 10:19:04;;;;;;;32.38;17.30;;;0.50;99.90;;;;;;5089088;28;20080;-72
2021/01/04 10:21:35;;;;;;;28.33;16.48;;;0.60;99.90;;;;;;5072158;28;20082;-73
2021/01/04 10:24:04;;;;;;;25.13;14.35;;;0.60;99.90;;;;;;5071896;28;20093;-75
2021/01/04 10:26:45;;;;;;;27.70;15.65;;;0.60;99.90;;;;;;5089936;28;20079;-73
2021/01/04 10:29:15;;;;;;;28.98;15.35;;;0.70;99.90;;;;;;5090839;28;20072;-72
2021/01/04 10:31:41;;;;;;;27.35;15.80;;;0.50;99.90;;;;;;5090136;28;20080;-72
2021/01/04 10:34:08;;;;;;;31.55;15.45;;;0.50;99.90;;;;;;5088610;28;20095;-72
2021/01/04 10:36:35;;;;;;;27.98;16.02;;;0.50;99.90;;;;;;5089558;28;20517;-71
2021/01/04 10:39:20;;;;;;;28.70;16.23;;;0.60;99.90;;;;;;5084392;28;20084;-72
2021/01/04 10:41:47;;;;;;;27.38;15.02;;;0.20;99.90;;;;;;5069453;28;20073;-73
2021/01/04 10:44:24;;;;;;;29.15;16.33;;;0.10;99.90;;;;;;5088629;28;20096;-72
2021/01/04 10:47:16;;;;;;;26.23;15.00;;;0.00;99.90;;;;;;5090277;28;20163;-73
2021/01/04 10:49:41;;;;;;;28.92;16.33;;;-0.10;99.90;;;;;;5070207;28;20109;-75
2021/01/04 10:52:20;;;;;;;28.15;14.73;;;-0.10;99.90;;;;;;5088306;28;20612;-74
2021/01/04 10:54:45;;;;;;;26.40;14.68;;;-0.10;99.90;;;;;;5088418;28;20064;-73
2021/01/04 10:57:34;;;;;;;29.67;16.48;;;0.20;99.90;;;;;;5088806;28;20590;-73
2021/01/04 11:00:00;;;;;;;35.53;18.83;;;0.40;99.90;;;;;;5079587;28;20081;-73
2021/01/04 11:02:26;;;;;;;34.17;17.50;;;0.60;99.90;;;;;;5050939;28;20452;-73
2021/01/04 11:04:55;;;;;;;35.05;19.42;;;0.70;99.90;;;;;;5067695;28;20087;-72
2021/01/04 11:07:32;;;;;;;33.90;17.27;;;0.70;99.90;;;;;;5089655;28;20076;-78
2021/01/04 11:10:11;;;;;;;33.55;17.30;;;0.70;99.90;;;;;;5089427;28;20444;-75
2021/01/04 11:12:52;;;;;;;33.78;18.02;;;0.70;99.90;;;;;;5070292;28;20143;-72
2021/01/04 11:15:31;;;;;;;32.38;17.63;;;0.70;99.90;;;;;;5068102;28;20159;-74
2021/01/04 11:17:59;;;;;;;31.65;17.13;;;0.60;99.90;;;;;;5067890;28;20088;-73
2021/01/04 11:20:24;;;;;;;29.35;16.65;;;0.60;99.90;;;;;;5082853;28;20543;-71
2021/01/04 11:23:04;;;;;;;31.00;16.27;;;0.60;99.90;;;;;;5069933;28;20207;-75
2021/01/04 11:25:30;;;;;;;29.92;15.30;;;0.60;99.90;;;;;;5088241;28;20076;-74
2021/01/04 11:27:56;;;;;;;26.10;16.45;;;0.60;99.90;;;;;;5088751;28;20075;-72
2021/01/04 11:30:23;;;;;;;28.10;15.15;;;0.50;99.90;;;;;;5088520;28;20556;-72
2021/01/04 11:32:48;;;;;;;30.83;16.33;;;0.60;99.90;;;;;;5088427;28;20168;-72
2021/01/04 11:35:14;;;;;;;25.63;15.23;;;0.60;99.90;;;;;;5087509;28;20214;-74
2021/01/04 11:37:40;;;;;;;28.05;16.63;;;0.70;99.90;;;;;;5088431;28;20233;-75
2021/01/04 11:40:06;;;;;;;30.27;16.02;;;0.70;99.90;;;;;;5066298;28;20073;-71
2021/01/04 11:42:32;;;;;;;31.77;15.13;;;0.60;99.90;;;;;;5077513;28;20096;-72
2021/01/04 11:44:58;;;;;;;33.03;16.83;;;0.60;99.90;;;;;;5077942;28;20890;-72
2021/01/04 11:47:24;;;;;;;29.15;15.90;;;0.70;99.90;;;;;;5070819;28;20142;-76
2021/01/04 11:49:49;;;;;;;30.20;16.35;;;0.60;99.90;;;;;;5067727;28;20196;-73
2021/01/04 11:52:15;;;;;;;29.42;15.48;;;0.60;99.90;;;;;;5067924;28;20089;-72
2021/01/04 11:54:44;;;;;;;25.38;12.90;;;0.60;99.90;;;;;;5078640;28;20159;-73
2021/01/04 11:57:11;;;;;;;28.73;15.85;;;0.70;99.90;;;;;;5088466;28;20091;-73
2021/01/04 11:59:36;;;;;;;30.83;16.33;;;0.60;99.90;;;;;;5088309;28;20529;-73
2021/01/04 12:02:02;;;;;;;27.75;14.75;;;0.70;99.90;;;;;;5088848;28;20079;-73
2021/01/04 12:04:28;;;;;;;31.25;15.68;;;0.50;99.90;;;;;;5068700;28;20133;-73
2021/01/04 12:06:54;;;;;;;26.70;13.80;;;0.30;99.90;;;;;;5088130;28;20080;-73
2021/01/04 12:09:19;;;;;;;25.60;14.63;;;0.30;99.90;;;;;;5087695;28;20084;-72
2021/01/04 12:11:47;;;;;;;25.98;14.02;;;0.30;99.90;;;;;;5070244;28;20586;-74
2021/01/04 12:14:16;;;;;;;26.42;14.45;;;0.20;99.90;;;;;;5068471;28;20616;-74
2021/01/04 12:16:43;;;;;;;27.15;15.20;;;0.30;99.90;;;;;;5073728;28;20386;-75
2021/01/04 12:19:09;;;;;;;28.52;14.85;;;0.40;99.90;;;;;;5051037;28;20080;-76
2021/01/04 12:21:35;;;;;;;26.63;13.50;;;0.30;99.90;;;;;;5068459;28;20080;-75
2021/01/04 12:24:00;;;;;;;23.77;13.73;;;0.20;99.90;;;;;;5068032;28;20100;-75
2021/01/04 12:26:27;;;;;;;29.90;14.63;;;0.20;99.90;;;;;;5070978;28;20588;-78
2021/01/04 12:28:54;;;;;;;27.13;16.27;;;0.00;99.90;;;;;;5072947;28;20072;-73
2021/01/04 12:31:19;;;;;;;28.08;15.15;;;-0.20;99.90;;;;;;5091770;28;20136;-74
2021/01/04 12:33:45;;;;;;;28.77;14.90;;;-0.20;99.90;;;;;;5091141;28;20127;-74
2021/01/04 12:36:20;;;;;;;27.70;14.65;;;-0.30;99.90;;;;;;5091638;28;20068;-74
2021/01/04 12:38:46;;;;;;;31.35;15.55;;;-0.30;99.90;;;;;;5091645;28;20079;-74
2021/01/04 12:41:11;;;;;;;30.50;17.35;;;0.00;99.90;;;;;;5092408;28;20080;-74
2021/01/04 12:43:37;;;;;;;32.33;15.82;;;0.20;99.90;;;;;;5092279;28;20085;-74
2021/01/04 12:46:04;;;;;;;30.63;15.73;;;0.30;99.90;;;;;;5073724;28;20084;-74
2021/01/04 12:48:31;;;;;;;27.63;15.88;;;0.40;99.90;;;;;;5075942;28;20167;-73
2021/01/04 12:50:57;;;;;;;26.85;15.18;;;0.40;99.90;;;;;;5070409;28;20563;-74
2021/01/04 12:53:22;;;;;;;34.72;16.75;;;0.50;99.90;;;;;;5053137;28;20089;-74
2021/01/04 12:55:48;;;;;;;32.15;16.90;;;0.30;99.90;;;;;;5071502;28;20072;-74
2021/01/04 12:58:14;;;;;;;29.27;15.30;;;0.10;99.90;;;;;;5080053;28;20520;-73
2021/01/04 13:00:41;;;;;;;29.33;15.00;;;-0.10;99.90;;;;;;5090896;28;20111;-75
2021/01/04 13:03:06;;;;;;;30.17;16.40;;;0.10;99.90;;;;;;5073389;28;20085;-76
2021/01/04 13:05:32;;;;;;;30.55;15.32;;;0.30;99.90;;;;;;5072920;28;20086;-77
2021/01/04 13:07:58;;;;;;;31.10;15.55;;;0.50;99.90;;;;;;5091158;28;20108;-78
2021/01/04 13:10:24;;;;;;;32.28;16.20;;;0.60;99.90;;;;;;5091514;28;20094;-76
2021/01/04 13:12:50;;;;;;;32.17;15.68;;;0.70;99.90;;;;;;5088794;28;20104;-74
2021/01/04 13:15:16;;;;;;;31.05;15.63;;;0.80;99.90;;;;;;5090177;28;20591;-74
2021/01/04 13:17:44;;;;;;;31.52;15.95;;;0.70;99.90;;;;;;5088446;28;20068;-75
2021/01/04 13:20:10;;;;;;;28.35;14.32;;;0.60;99.90;;;;;;5091076;28;20125;-74
2021/01/04 13:22:35;;;;;;;32.10;15.02;;;0.40;99.90;;;;;;5082662;28;20619;-75
2021/01/04 13:25:01;;;;;;;26.08;13.73;;;0.40;99.90;;;;;;5080790;28;20077;-75
2021/01/04 13:27:27;;;;;;;28.90;13.60;;;0.30;99.90;;;;;;5080371;28;20716;-75